Time;durP1;ratioP1;P1;durP2;ratioP2;P2;SDS_P1;SDS_P2;PMS_P1;PMS_P2;Temp;Humidity;BMP_temperature;BMP_pressure;BME280_temperature;BME280_humidity;BME280_pressure;Samples;Min_cycle;Max_cycle;Signal;HPM_P1;HPM_P2
2023/02/05 00:02:17;;;;;;;3.60;2.87;;;0.40;99.90;;;;;;5060221;28;20543;-69
2023/02/05 00:04:44;;;;;;;4.30;3.17;;;0.40;99.90;;;;;;5060462;28;20505;-68
2023/02/05 00:07:11;;;;;;;7.90;2.80;;;0.40;99.90;;;;;;5061188;28;20490;-69
2023/02/05 00:09:39;;;;;;;5.90;2.60;;;0.40;99.90;;;;;;5059933;28;20987;-68
2023/02/05 00:12:07;;;;;;;5.80;3.53;;;0.40;99.90;;;;;;5058526;28;20479;-68
2023/02/05 00:14:34;;;;;;;3.50;2.83;;;0.40;99.90;;;;;;5058897;28;20455;-69
2023/02/05 00:17:03;;;;;;;4.30;2.90;;;0.40;99.90;;;;;;5058767;28;20546;-68
2023/02/05 00:19:30;;;;;;;3.20;2.90;;;0.40;99.90;;;;;;5059218;28;20547;-69
2023/02/05 00:21:56;;;;;;;4.17;3.27;;;0.40;99.90;;;;;;5059926;28;20518;-69
2023/02/05 00:24:23;;;;;;;3.10;2.80;;;0.30;99.90;;;;;;5061062;28;20519;-69
2023/02/05 00:26:50;;;;;;;3.33;2.47;;;0.30;99.90;;;;;;5059382;28;20490;-69
2023/02/05 00:29:17;;;;;;;3.60;3.20;;;0.30;99.90;;;;;;5059609;28;20538;-69
2023/02/05 00:31:46;;;;;;;3.13;2.63;;;0.30;99.90;;;;;;5058975;28;20555;-68
2023/02/05 00:34:14;;;;;;;3.67;3.23;;;0.30;99.90;;;;;;5059170;28;20459;-69
2023/02/05 00:36:41;;;;;;;3.97;2.53;;;0.20;99.90;;;;;;5061184;28;20791;-69
2023/02/05 00:39:10;;;;;;;2.90;2.70;;;0.20;99.90;;;;;;5061178;28;20550;-69
2023/02/05 00:41:37;;;;;;;3.07;2.87;;;0.20;99.90;;;;;;5060509;28;20483;-69
2023/02/05 00:44:04;;;;;;;4.63;3.00;;;0.20;99.90;;;;;;5060203;28;21031;-69
2023/02/05 00:46:31;;;;;;;8.40;4.30;;;0.30;99.90;;;;;;5061205;28;20771;-69
2023/02/05 00:48:58;;;;;;;5.30;2.90;;;0.20;99.90;;;;;;5060012;28;20534;-69
2023/02/05 00:51:26;;;;;;;2.47;2.27;;;0.20;99.90;;;;;;5059824;28;20494;-68
2023/02/05 00:53:53;;;;;;;3.30;2.73;;;0.20;99.90;;;;;;5060483;28;20932;-68
2023/02/05 00:56:20;;;;;;;3.67;2.87;;;0.20;99.90;;;;;;5060027;28;20951;-68
2023/02/05 00:58:48;;;;;;;8.57;3.47;;;0.10;99.90;;;;;;5060472;28;20462;-69
2023/02/05 01:01:16;;;;;;;3.90;3.10;;;0.10;99.90;;;;;;5060498;28;20924;-68
2023/02/05 01:03:43;;;;;;;3.67;2.90;;;0.10;99.90;;;;;;5059606;28;20920;-68
2023/02/05 01:06:10;;;;;;;4.20;2.50;;;0.10;99.90;;;;;;5059745;28;20658;-69
2023/02/05 01:08:38;;;;;;;3.07;2.33;;;0.10;99.90;;;;;;5059032;28;20542;-68
2023/02/05 01:11:09;;;;;;;4.30;3.03;;;0.00;99.90;;;;;;5058704;28;20510;-69
2023/02/05 01:13:35;;;;;;;5.50;3.47;;;0.00;99.90;;;;;;5060286;28;20451;-69
2023/02/05 01:16:04;;;;;;;5.20;4.33;;;0.00;99.90;;;;;;5059277;28;20502;-69
2023/02/05 01:18:31;;;;;;;6.17;3.60;;;0.00;99.90;;;;;;5059066;28;20479;-68
2023/02/05 01:20:58;;;;;;;5.80;3.27;;;-0.10;99.90;;;;;;5059120;28;20538;-69
2023/02/05 01:23:25;;;;;;;2.90;2.53;;;-0.10;99.90;;;;;;5059940;28;20462;-69
2023/02/05 01:25:53;;;;;;;3.73;3.00;;;-0.10;99.90;;;;;;5059379;28;20486;-69
2023/02/05 01:28:20;;;;;;;3.77;2.80;;;-0.10;99.90;;;;;;5059408;28;20538;-69
2023/02/05 01:30:48;;;;;;;4.50;3.27;;;-0.20;99.90;;;;;;5059214;28;20550;-68
2023/02/05 01:33:15;;;;;;;4.10;2.97;;;-0.10;99.90;;;;;;5059149;28;20451;-69
2023/02/05 01:35:43;;;;;;;5.57;3.93;;;-0.20;99.90;;;;;;5059584;28;20469;-69
2023/02/05 01:38:10;;;;;;;5.73;3.53;;;-0.20;99.90;;;;;;5057323;28;20451;-68
2023/02/05 01:40:38;;;;;;;3.17;2.90;;;-0.20;99.90;;;;;;5058040;28;20505;-69
2023/02/05 01:43:10;;;;;;;3.70;3.40;;;-0.20;99.90;;;;;;5058601;28;20451;-69
2023/02/05 01:45:51;;;;;;;7.93;2.90;;;-0.20;99.90;;;;;;5060179;28;20900;-69
2023/02/05 01:48:22;;;;;;;4.77;2.80;;;-0.20;99.90;;;;;;5058545;28;20443;-69
2023/02/05 01:50:53;;;;;;;8.17;3.50;;;-0.10;99.90;;;;;;5058912;28;20621;-69
2023/02/05 01:53:26;;;;;;;4.53;3.53;;;-0.20;99.90;;;;;;5058733;28;20478;-70
2023/02/05 01:55:56;;;;;;;4.00;2.73;;;-0.20;99.90;;;;;;5059065;28;20881;-69
2023/02/05 01:58:29;;;;;;;6.07;3.57;;;-0.20;99.90;;;;;;5059714;28;20451;-69
2023/02/05 02:00:57;;;;;;;3.60;3.30;;;-0.20;99.90;;;;;;5059458;28;20542;-68
2023/02/05 02:03:26;;;;;;;7.87;2.87;;;-0.20;99.90;;;;;;5058713;28;20532;-69
2023/02/05 02:05:53;;;;;;;3.83;2.77;;;-0.30;99.90;;;;;;5058420;28;20546;-69
2023/02/05 02:08:20;;;;;;;3.27;2.80;;;-0.30;99.90;;;;;;5058673;28;20518;-69
2023/02/05 02:10:49;;;;;;;4.30;3.00;;;-0.30;99.90;;;;;;5058303;28;20465;-68
2023/02/05 02:13:18;;;;;;;6.20;3.50;;;-0.30;99.90;;;;;;5058305;28;20909;-68
2023/02/05 02:15:48;;;;;;;5.40;3.43;;;-0.30;99.90;;;;;;5057864;28;20542;-68
2023/02/05 02:18:27;;;;;;;4.40;3.30;;;-0.30;99.90;;;;;;5056923;28;20546;-68
2023/02/05 02:21:25;;;;;;;4.40;3.10;;;-0.30;99.90;;;;;;5056298;28;20446;-69
2023/02/05 02:24:12;;;;;;;5.80;3.63;;;-0.30;99.90;;;;;;5054983;28;20895;-68
2023/02/05 02:26:57;;;;;;;4.73;3.67;;;-0.30;99.90;;;;;;5056587;28;20526;-69
2023/02/05 02:29:36;;;;;;;4.03;3.37;;;-0.30;99.90;;;;;;5056790;28;20449;-69
2023/02/05 02:32:11;;;;;;;6.10;3.93;;;-0.40;99.90;;;;;;5056561;28;20472;-69
2023/02/05 02:34:44;;;;;;;5.77;3.83;;;-0.40;99.90;;;;;;5058000;28;20771;-67
2023/02/05 02:37:17;;;;;;;5.10;3.60;;;-0.40;99.90;;;;;;5057873;28;20443;-69
2023/02/05 02:39:52;;;;;;;5.07;3.53;;;-0.40;99.90;;;;;;5059743;28;20443;-67
2023/02/05 02:42:24;;;;;;;6.50;3.40;;;-0.40;99.90;;;;;;5060255;28;20431;-68
2023/02/05 02:44:56;;;;;;;3.77;2.93;;;-0.40;99.90;;;;;;5059806;28;21026;-69
2023/02/05 02:47:28;;;;;;;5.30;3.80;;;-0.40;99.90;;;;;;5060246;28;20908;-69
2023/02/05 02:50:00;;;;;;;4.30;3.53;;;-0.40;99.90;;;;;;5060101;28;20439;-69
2023/02/05 02:52:31;;;;;;;4.00;3.60;;;-0.40;99.90;;;;;;5060036;28;20463;-68
2023/02/05 02:55:04;;;;;;;4.93;3.87;;;-0.40;99.90;;;;;;5060888;28;20439;-68
2023/02/05 02:57:34;;;;;;;9.77;4.10;;;-0.40;99.90;;;;;;5059931;28;20833;-69
2023/02/05 03:00:06;;;;;;;5.97;3.77;;;-0.40;99.90;;;;;;5060375;28;20457;-69
2023/02/05 03:02:36;;;;;;;5.17;4.03;;;-0.40;99.90;;;;;;5059945;28;20918;-68
2023/02/05 03:05:05;;;;;;;4.47;3.77;;;-0.40;99.90;;;;;;5060152;28;20447;-67
2023/02/05 03:07:36;;;;;;;5.53;4.00;;;-0.40;99.90;;;;;;5059667;28;20550;-68
2023/02/05 03:10:07;;;;;;;10.00;4.30;;;-0.40;99.90;;;;;;5060007;28;20459;-68
2023/02/05 03:12:34;;;;;;;6.73;4.27;;;-0.40;99.90;;;;;;5059955;28;20493;-67
2023/02/05 03:15:03;;;;;;;5.10;4.40;;;-0.40;99.90;;;;;;5060015;28;20451;-69
2023/02/05 03:17:31;;;;;;;6.03;4.30;;;-0.50;99.90;;;;;;5060101;28;20461;-69
2023/02/05 03:20:02;;;;;;;5.67;4.60;;;-0.50;99.90;;;;;;5060775;28;20459;-69
2023/02/05 03:22:29;;;;;;;8.60;4.60;;;-0.50;99.90;;;;;;5060986;28;20450;-68
2023/02/05 03:24:56;;;;;;;5.37;4.50;;;-0.50;99.90;;;;;;5061353;28;20459;-69
2023/02/05 03:27:23;;;;;;;6.03;4.53;;;-0.60;99.90;;;;;;5060844;28;20455;-69
2023/02/05 03:29:50;;;;;;;5.30;4.53;;;-0.60;99.90;;;;;;5060880;28;20498;-68
2023/02/05 03:32:30;;;;;;;6.57;4.20;;;-0.60;99.90;;;;;;5060442;28;20492;-69
2023/02/05 03:35:10;;;;;;;7.03;4.33;;;-0.60;99.90;;;;;;5061473;28;20451;-67
2023/02/05 03:37:46;;;;;;;5.23;4.60;;;-0.70;99.90;;;;;;5060736;28;20485;-68
2023/02/05 03:40:20;;;;;;;5.87;4.30;;;-0.70;99.90;;;;;;5060483;28;20509;-68
2023/02/05 03:42:57;;;;;;;5.43;4.90;;;-0.70;99.90;;;;;;5060975;28;20450;-68
2023/02/05 03:45:32;;;;;;;5.37;4.57;;;-0.70;99.90;;;;;;5060538;28;20880;-69
2023/02/05 03:48:13;;;;;;;5.70;4.27;;;-0.70;99.90;;;;;;5060765;28;20431;-68
2023/02/05 03:50:43;;;;;;;6.40;4.00;;;-0.70;99.90;;;;;;5060636;28;20450;-68
2023/02/05 03:53:19;;;;;;;6.03;4.70;;;-0.60;99.90;;;;;;5060107;28;20464;-68
2023/02/05 03:55:51;;;;;;;5.90;4.80;;;-0.60;99.90;;;;;;5060397;28;20836;-69
2023/02/05 03:58:24;;;;;;;5.30;4.80;;;-0.60;99.90;;;;;;5060220;28;20524;-67
2023/02/05 04:00:51;;;;;;;6.07;4.60;;;-0.50;99.90;;;;;;5059874;28;20459;-68
2023/02/05 04:03:20;;;;;;;4.87;4.47;;;-0.50;99.90;;;;;;5059737;28;20465;-68
2023/02/05 04:05:46;;;;;;;5.63;4.77;;;-0.50;99.90;;;;;;5059921;28;20855;-68
2023/02/05 04:08:13;;;;;;;6.03;4.43;;;-0.50;99.90;;;;;;5059870;28;20465;-69
2023/02/05 04:10:40;;;;;;;7.90;4.23;;;-0.40;99.90;;;;;;5059880;28;20534;-68
2023/02/05 04:13:07;;;;;;;6.70;4.20;;;-0.40;99.90;;;;;;5059471;28;20490;-67
2023/02/05 04:15:34;;;;;;;6.10;4.40;;;-0.40;99.90;;;;;;5060031;28;20545;-68
2023/02/05 04:18:01;;;;;;;5.40;4.37;;;-0.40;99.90;;;;;;5059146;28;20495;-70
2023/02/05 04:20:29;;;;;;;8.13;4.63;;;-0.40;99.90;;;;;;5058963;28;20551;-68
2023/02/05 04:22:56;;;;;;;5.37;4.60;;;-0.40;99.90;;;;;;5058676;28;20542;-68
2023/02/05 04:25:22;;;;;;;7.30;5.07;;;-0.30;99.90;;;;;;5059498;28;20465;-68
2023/02/05 04:27:49;;;;;;;6.23;4.83;;;-0.20;99.90;;;;;;5059693;28;20950;-68
2023/02/05 04:30:16;;;;;;;7.10;4.80;;;-0.20;99.90;;;;;;5059806;28;20829;-68
2023/02/05 04:32:43;;;;;;;6.80;4.50;;;-0.20;99.90;;;;;;5059310;28;20479;-68
2023/02/05 04:35:10;;;;;;;6.23;4.03;;;-0.20;99.90;;;;;;5059827;28;20485;-68
2023/02/05 04:37:38;;;;;;;5.90;4.63;;;-0.20;99.90;;;;;;5059340;28;20546;-69
2023/02/05 04:40:07;;;;;;;6.27;4.70;;;-0.20;99.90;;;;;;5059139;28;20455;-69
2023/02/05 04:42:33;;;;;;;6.87;5.03;;;-0.20;99.90;;;;;;5058892;28;20538;-69
2023/02/05 04:45:00;;;;;;;5.00;4.17;;;-0.30;99.90;;;;;;5058658;28;20483;-68
2023/02/05 04:47:27;;;;;;;7.00;4.57;;;-0.30;99.90;;;;;;5058544;28;20463;-67
2023/02/05 04:49:54;;;;;;;6.67;3.90;;;-0.30;99.90;;;;;;5058380;28;21102;-68
2023/02/05 04:52:21;;;;;;;6.13;3.83;;;-0.20;99.90;;;;;;5058572;28;20569;-69
2023/02/05 04:54:49;;;;;;;6.57;4.40;;;-0.20;99.90;;;;;;5059101;28;20985;-68
2023/02/05 04:57:17;;;;;;;5.40;3.83;;;-0.20;99.90;;;;;;5058351;28;20547;-69
2023/02/05 04:59:44;;;;;;;4.20;3.47;;;-0.30;99.90;;;;;;5058001;28;20581;-68
2023/02/05 05:02:10;;;;;;;3.77;3.47;;;-0.20;99.90;;;;;;5057543;28;20920;-68
2023/02/05 05:04:37;;;;;;;6.83;3.73;;;-0.20;99.90;;;;;;5057805;28;20459;-68
2023/02/05 05:07:04;;;;;;;8.10;3.70;;;-0.20;99.90;;;;;;5058244;28;20461;-69
2023/02/05 05:09:31;;;;;;;4.30;3.43;;;-0.20;99.90;;;;;;5058700;28;20498;-68
2023/02/05 05:11:59;;;;;;;3.73;3.33;;;-0.20;99.90;;;;;;5057524;28;21077;-69
2023/02/05 05:14:26;;;;;;;5.20;3.93;;;-0.20;99.90;;;;;;5057620;28;20851;-68
2023/02/05 05:16:53;;;;;;;3.40;2.83;;;-0.20;99.90;;;;;;5057446;28;20538;-68
2023/02/05 05:19:20;;;;;;;6.10;3.57;;;-0.20;99.90;;;;;;5057105;28;20541;-68
2023/02/05 05:21:47;;;;;;;3.90;3.47;;;-0.20;99.90;;;;;;5057777;28;20465;-68
2023/02/05 05:24:13;;;;;;;4.23;3.60;;;-0.10;99.90;;;;;;5057529;28;20465;-69
2023/02/05 05:26:43;;;;;;;6.90;4.20;;;-0.10;99.90;;;;;;5057470;28;20458;-68
2023/02/05 05:29:13;;;;;;;4.40;3.50;;;-0.20;99.90;;;;;;5057162;28;20460;-68
2023/02/05 05:31:40;;;;;;;3.50;3.20;;;-0.10;99.90;;;;;;5057337;28;20557;-68
2023/02/05 05:34:07;;;;;;;4.93;3.20;;;-0.20;99.90;;;;;;5057202;28;20557;-69
2023/02/05 05:36:34;;;;;;;4.53;3.70;;;-0.10;99.90;;;;;;5057408;28;20497;-68
2023/02/05 05:43:45;;;;;;;4.80;3.27;;;-0.20;99.90;;;;;;5057304;28;20546;-68
2023/02/05 05:44:33;;;;;;;4.03;3.63;;;-0.30;99.90;;;;;;5057048;28;20947;-69
2023/02/05 05:47:00;;;;;;;6.20;3.77;;;-0.30;99.90;;;;;;5057522;28;20463;-68
2023/02/05 05:49:26;;;;;;;7.80;4.40;;;-0.30;99.90;;;;;;5057076;28;20543;-68
2023/02/05 05:51:53;;;;;;;9.20;4.50;;;-0.30;99.90;;;;;;5056649;28;20466;-68
2023/02/05 05:54:20;;;;;;;5.10;3.70;;;-0.20;99.90;;;;;;5057171;28;20542;-68
2023/02/05 05:56:48;;;;;;;6.30;5.10;;;-0.20;99.90;;;;;;5059352;28;20469;-67
2023/02/05 05:59:15;;;;;;;7.73;4.87;;;-0.20;99.90;;;;;;5059965;28;20458;-68
2023/02/05 06:01:43;;;;;;;6.30;4.70;;;-0.20;99.90;;;;;;5059309;28;20542;-70
2023/02/05 06:04:10;;;;;;;3.63;3.33;;;-0.10;99.90;;;;;;5057736;28;20542;-69
2023/02/05 06:06:37;;;;;;;4.30;3.50;;;-0.20;99.90;;;;;;5057166;28;20455;-68
2023/02/05 06:09:04;;;;;;;6.70;3.77;;;-0.20;99.90;;;;;;5057180;28;20843;-69
2023/02/05 06:11:31;;;;;;;3.90;3.57;;;-0.20;99.90;;;;;;5057035;28;20455;-68
2023/02/05 06:13:58;;;;;;;6.83;3.50;;;-0.20;99.90;;;;;;5056058;28;20479;-68
2023/02/05 06:16:25;;;;;;;5.50;4.30;;;-0.20;99.90;;;;;;5057400;28;20465;-69
2023/02/05 06:18:55;;;;;;;4.70;3.73;;;-0.30;99.90;;;;;;5057321;28;20465;-69
2023/02/05 06:21:22;;;;;;;5.37;4.63;;;-0.20;99.90;;;;;;5057178;28;20455;-69
2023/02/05 06:23:49;;;;;;;3.67;3.23;;;-0.20;99.90;;;;;;5057240;28;20447;-68
2023/02/05 06:26:16;;;;;;;4.70;4.00;;;-0.20;99.90;;;;;;5056882;28;20582;-68
2023/02/05 06:28:43;;;;;;;3.57;3.20;;;-0.20;99.90;;;;;;5057172;28;20506;-67
2023/02/05 06:31:10;;;;;;;6.07;3.73;;;-0.20;99.90;;;;;;5057456;28;20534;-68
2023/02/05 06:33:36;;;;;;;4.33;3.77;;;-0.20;99.90;;;;;;5056671;28;20478;-68
2023/02/05 06:36:06;;;;;;;4.10;3.20;;;-0.10;99.90;;;;;;5057442;28;20459;-68
2023/02/05 06:38:33;;;;;;;4.70;3.40;;;-0.10;99.90;;;;;;5056687;28;20553;-68
2023/02/05 06:40:59;;;;;;;4.80;4.20;;;0.00;99.90;;;;;;5056671;28;20519;-68
2023/02/05 06:43:26;;;;;;;4.70;3.90;;;0.00;99.90;;;;;;5056136;28;20479;-69
2023/02/05 06:45:54;;;;;;;12.13;7.13;;;0.10;99.90;;;;;;5060297;28;20522;-68
2023/02/05 06:48:21;;;;;;;5.23;4.13;;;0.10;99.90;;;;;;5059773;28;20463;-68
2023/02/05 06:50:48;;;;;;;4.93;3.87;;;0.10;99.90;;;;;;5057003;28;20470;-68
2023/02/05 06:53:16;;;;;;;17.13;6.80;;;0.10;99.90;;;;;;5056460;28;20483;-68
2023/02/05 06:55:43;;;;;;;8.20;6.83;;;0.10;99.90;;;;;;5056789;28;20451;-68
2023/02/05 06:58:09;;;;;;;18.03;10.90;;;0.10;99.90;;;;;;5057080;28;21218;-68
2023/02/05 07:00:36;;;;;;;9.00;5.63;;;0.10;99.90;;;;;;5056577;28;20459;-68
2023/02/05 07:03:04;;;;;;;10.60;4.03;;;0.10;99.90;;;;;;5057037;28;20904;-67
2023/02/05 07:05:31;;;;;;;6.80;3.73;;;0.10;99.90;;;;;;5060525;28;20859;-68
2023/02/05 07:07:58;;;;;;;4.40;3.70;;;0.10;99.90;;;;;;5077133;28;20454;-67
2023/02/05 07:10:26;;;;;;;4.00;3.60;;;0.10;99.90;;;;;;5076678;28;20458;-68
2023/02/05 07:12:53;;;;;;;4.13;3.63;;;0.10;99.90;;;;;;5076569;28;20478;-68
2023/02/05 07:15:20;;;;;;;9.27;3.70;;;0.10;99.90;;;;;;5076455;28;20458;-68
2023/02/05 07:17:47;;;;;;;5.93;4.20;;;0.10;99.90;;;;;;5076852;28;20891;-68
2023/02/05 07:20:15;;;;;;;4.10;3.70;;;0.10;99.90;;;;;;5076418;28;20548;-68
2023/02/05 07:22:42;;;;;;;4.10;3.70;;;0.20;99.90;;;;;;5076999;28;20830;-68
2023/02/05 07:25:09;;;;;;;6.90;4.50;;;0.10;99.90;;;;;;5079567;28;20482;-68
2023/02/05 07:27:37;;;;;;;4.63;4.10;;;0.20;99.90;;;;;;5081279;28;20477;-67
2023/02/05 07:30:05;;;;;;;7.20;4.37;;;0.20;99.90;;;;;;5071560;28;20455;-67
2023/02/05 07:32:32;;;;;;;5.70;4.37;;;0.20;99.90;;;;;;5060071;28;20546;-68
2023/02/05 07:34:59;;;;;;;5.70;4.33;;;0.20;99.90;;;;;;5060420;28;20541;-67
2023/02/05 07:37:26;;;;;;;6.20;4.30;;;0.30;99.90;;;;;;5060135;28;20465;-68
2023/02/05 07:39:52;;;;;;;5.07;4.57;;;0.30;99.90;;;;;;5060267;28;20469;-69
2023/02/05 07:42:20;;;;;;;4.93;4.40;;;0.20;99.90;;;;;;5060014;28;20485;-69
2023/02/05 07:44:48;;;;;;;5.93;4.80;;;0.20;99.90;;;;;;5059851;28;20523;-69
2023/02/05 07:47:15;;;;;;;7.30;4.83;;;0.20;99.90;;;;;;5059718;28;20975;-69
2023/02/05 07:49:42;;;;;;;8.47;4.90;;;0.10;99.90;;;;;;5059831;28;20455;-68
2023/02/05 07:52:09;;;;;;;5.63;4.93;;;0.20;99.90;;;;;;5059315;28;20550;-68
2023/02/05 07:54:35;;;;;;;9.23;5.33;;;0.10;99.90;;;;;;5059679;28;20487;-68
2023/02/05 07:57:02;;;;;;;5.77;4.90;;;0.20;99.90;;;;;;5059582;28;20549;-68
2023/02/05 07:59:29;;;;;;;7.90;4.57;;;0.20;99.90;;;;;;5059358;28;20541;-68
2023/02/05 08:01:57;;;;;;;6.50;5.13;;;0.30;99.90;;;;;;5059395;28;20465;-69
2023/02/05 08:04:25;;;;;;;5.33;4.40;;;0.30;99.90;;;;;;5060672;28;20836;-69
2023/02/05 08:06:52;;;;;;;4.70;4.20;;;0.30;99.90;;;;;;5059720;28;20439;-69
2023/02/05 08:09:19;;;;;;;4.80;4.10;;;0.40;99.90;;;;;;5059620;28;20455;-68
2023/02/05 08:11:46;;;;;;;7.13;4.77;;;0.40;99.90;;;;;;5059617;28;20487;-69
2023/02/05 08:14:13;;;;;;;8.50;5.33;;;0.50;99.90;;;;;;5058806;28;20591;-68
2023/02/05 08:16:40;;;;;;;6.70;4.93;;;0.50;99.90;;;;;;5059238;28;20966;-68
2023/02/05 08:19:13;;;;;;;7.77;5.03;;;0.50;99.90;;;;;;5059308;28;20570;-67
2023/02/05 08:21:39;;;;;;;5.57;4.80;;;0.50;99.90;;;;;;5059183;28;20443;-68
2023/02/05 08:24:06;;;;;;;4.53;4.13;;;0.60;99.90;;;;;;5059276;28;20463;-68
2023/02/05 08:26:33;;;;;;;4.67;3.73;;;0.60;99.90;;;;;;5059530;28;20455;-68
2023/02/05 08:29:00;;;;;;;5.43;3.80;;;0.60;99.90;;;;;;5059191;28;20542;-69
2023/02/05 08:31:27;;;;;;;6.50;4.20;;;0.70;99.90;;;;;;5059750;28;20497;-68
2023/02/05 08:33:55;;;;;;;7.07;4.00;;;0.80;99.90;;;;;;5059141;28;20479;-68
2023/02/05 08:36:23;;;;;;;7.93;3.43;;;0.90;99.90;;;;;;5058441;28;20485;-67
2023/02/05 08:38:50;;;;;;;6.40;4.40;;;0.90;99.90;;;;;;5058760;28;20458;-67
2023/02/05 08:41:17;;;;;;;6.90;4.43;;;0.90;99.90;;;;;;5058874;28;20542;-67
2023/02/05 08:43:46;;;;;;;4.93;3.60;;;0.90;99.90;;;;;;5058393;28;20529;-69
2023/02/05 08:46:15;;;;;;;5.00;4.30;;;0.80;99.90;;;;;;5058906;28;20466;-68
2023/02/05 08:48:42;;;;;;;6.47;4.43;;;0.80;99.90;;;;;;5059089;28;20529;-68
2023/02/05 08:51:10;;;;;;;6.50;4.50;;;0.80;99.90;;;;;;5059079;28;20546;-68
2023/02/05 08:53:39;;;;;;;6.63;3.80;;;0.70;99.90;;;;;;5057958;28;21062;-69
2023/02/05 08:56:09;;;;;;;4.80;4.30;;;0.70;99.90;;;;;;5058546;28;20455;-68
2023/02/05 08:58:36;;;;;;;5.77;3.70;;;0.70;99.90;;;;;;5058310;28;20478;-68
2023/02/05 09:01:05;;;;;;;6.00;3.80;;;0.70;99.90;;;;;;5059382;28;20852;-69
2023/02/05 09:03:32;;;;;;;6.17;3.90;;;0.70;99.90;;;;;;5058484;28;20978;-68
2023/02/05 09:06:01;;;;;;;5.43;3.90;;;0.70;99.90;;;;;;5058832;28;20459;-69
2023/02/05 09:08:28;;;;;;;3.70;3.40;;;0.80;99.90;;;;;;5058170;28;20455;-68
2023/02/05 09:10:56;;;;;;;6.30;3.90;;;1.00;99.90;;;;;;5058643;28;20995;-69
2023/02/05 09:13:23;;;;;;;4.87;3.00;;;1.00;99.90;;;;;;5059253;28;20536;-68
2023/02/05 09:15:50;;;;;;;4.73;2.93;;;1.10;99.90;;;;;;5058994;28;20459;-68
2023/02/05 09:18:17;;;;;;;5.80;3.60;;;1.10;99.90;;;;;;5058204;28;20455;-69
2023/02/05 09:20:47;;;;;;;5.20;3.80;;;1.10;99.90;;;;;;5058418;28;20451;-69
2023/02/05 09:23:16;;;;;;;3.90;3.50;;;1.10;99.90;;;;;;5061253;28;20451;-68
2023/02/05 09:25:43;;;;;;;8.03;3.77;;;1.10;99.90;;;;;;5061105;28;20546;-69
2023/02/05 09:28:13;;;;;;;5.17;2.87;;;1.20;99.90;;;;;;5061157;28;20976;-69
2023/02/05 09:30:42;;;;;;;3.50;3.20;;;1.30;99.90;;;;;;5060366;28;20444;-69
2023/02/05 09:33:10;;;;;;;3.57;2.70;;;1.40;99.90;;;;;;5059592;28;20554;-72
2023/02/05 09:35:37;;;;;;;6.70;3.40;;;1.40;99.90;;;;;;5060551;28;20554;-69
2023/02/05 09:38:04;;;;;;;4.80;3.00;;;1.40;99.90;;;;;;5059522;28;20482;-68
2023/02/05 09:40:35;;;;;;;4.10;2.60;;;1.40;99.90;;;;;;5058950;28;20648;-71
2023/02/05 09:43:11;;;;;;;5.03;2.73;;;1.30;99.90;;;;;;5059191;28;20448;-71
2023/02/05 09:45:53;;;;;;;4.23;2.90;;;1.30;99.90;;;;;;5059815;28;20495;-68
2023/02/05 09:48:48;;;;;;;4.70;3.60;;;1.40;99.90;;;;;;5059787;28;20526;-72
2023/02/05 09:51:18;;;;;;;9.00;3.83;;;1.40;99.90;;;;;;5059971;28;20513;-69
2023/02/05 09:53:50;;;;;;;8.40;4.80;;;1.40;99.90;;;;;;5060822;28;20564;-68
2023/02/05 09:56:18;;;;;;;4.30;3.50;;;1.40;99.90;;;;;;5057521;28;20892;-68
2023/02/05 09:58:47;;;;;;;7.57;3.97;;;1.40;99.90;;;;;;5057567;28;20470;-69
2023/02/05 10:01:21;;;;;;;6.70;3.30;;;1.40;99.90;;;;;;5058565;28;20979;-69
2023/02/05 10:03:52;;;;;;;3.83;3.30;;;1.40;99.90;;;;;;5058556;28;20948;-67
2023/02/05 10:06:53;;;;;;;4.00;2.73;;;1.30;99.90;;;;;;5060240;28;20454;-69
2023/02/05 10:09:36;;;;;;;3.70;3.40;;;1.30;99.90;;;;;;5035485;28;20451;-68
2023/02/05 10:12:13;;;;;;;8.10;3.47;;;1.40;99.90;;;;;;5058194;28;20500;-68
2023/02/05 10:14:48;;;;;;;6.43;4.03;;;1.40;99.90;;;;;;5057683;28;20495;-69
2023/02/05 10:17:32;;;;;;;5.77;3.53;;;1.40;99.90;;;;;;5059076;28;20525;-69
2023/02/05 10:20:25;;;;;;;7.60;3.80;;;1.50;99.90;;;;;;5060457;28;20537;-68
2023/02/05 10:23:11;;;;;;;5.13;3.63;;;1.50;99.90;;;;;;5053078;28;20542;-68
2023/02/05 10:26:01;;;;;;;5.93;3.80;;;1.40;99.90;;;;;;5058114;28;20435;-67
2023/02/05 10:29:02;;;;;;;6.07;4.30;;;1.50;99.90;;;;;;5059151;28;20439;-67
2023/02/05 10:31:41;;;;;;;7.73;4.20;;;1.60;99.90;;;;;;5060511;28;20465;-68
2023/02/05 10:34:17;;;;;;;6.07;4.40;;;1.70;99.90;;;;;;5060680;28;20554;-69
2023/02/05 10:36:48;;;;;;;6.97;5.20;;;1.70;99.90;;;;;;5061317;28;20443;-68
2023/02/05 10:39:19;;;;;;;5.47;4.80;;;1.80;99.90;;;;;;5063074;28;20458;-69
2023/02/05 10:41:51;;;;;;;6.13;4.73;;;1.90;99.90;;;;;;5061652;28;20438;-68
2023/02/05 10:44:24;;;;;;;5.00;3.90;;;2.00;99.90;;;;;;5062524;28;20571;-68
2023/02/05 10:47:00;;;;;;;5.77;3.90;;;2.10;99.90;;;;;;5066865;28;20478;-68
2023/02/05 10:49:40;;;;;;;6.50;4.40;;;2.30;99.90;;;;;;5082497;28;20434;-68
2023/02/05 10:52:10;;;;;;;4.63;3.27;;;2.40;99.90;;;;;;5083810;28;20434;-68
2023/02/05 10:54:37;;;;;;;6.47;4.50;;;2.50;99.90;;;;;;5085239;28;20510;-69
2023/02/05 10:57:11;;;;;;;4.60;3.60;;;2.50;99.90;;;;;;5083450;28;20549;-70
2023/02/05 10:59:48;;;;;;;4.90;4.03;;;2.60;99.90;;;;;;5085625;28;20537;-68
2023/02/05 11:02:15;;;;;;;4.57;3.60;;;2.50;99.90;;;;;;5089693;28;20488;-68
2023/02/05 11:04:48;;;;;;;4.07;3.10;;;2.50;99.90;;;;;;5089223;28;20541;-69
2023/02/05 11:07:23;;;;;;;3.90;3.23;;;2.60;99.90;;;;;;5075799;28;20461;-68
2023/02/05 11:09:50;;;;;;;10.83;4.10;;;2.60;99.90;;;;;;5067058;28;20470;-68
2023/02/05 11:12:23;;;;;;;5.13;3.10;;;2.70;99.90;;;;;;5068250;28;20502;-68
2023/02/05 11:14:57;;;;;;;5.20;3.30;;;2.80;99.90;;;;;;5067678;28;20467;-68
2023/02/05 11:17:29;;;;;;;5.80;3.23;;;2.90;99.90;;;;;;5067357;28;20442;-69
2023/02/05 11:20:04;;;;;;;6.40;4.43;;;3.00;99.90;;;;;;5067656;28;20535;-69
2023/02/05 11:22:34;;;;;;;5.30;3.03;;;3.00;99.90;;;;;;5067386;28;20500;-68
2023/02/05 11:25:15;;;;;;;3.50;3.07;;;3.00;99.90;;;;;;5068477;28;20473;-69
2023/02/05 11:27:52;;;;;;;3.53;3.07;;;3.10;99.90;;;;;;5068461;28;20443;-68
2023/02/05 11:30:24;;;;;;;4.10;2.63;;;3.20;99.90;;;;;;5067096;28;20514;-68
2023/02/05 11:32:51;;;;;;;4.70;3.00;;;3.20;99.90;;;;;;5066708;28;20486;-68
2023/02/05 11:35:24;;;;;;;7.00;3.67;;;3.20;99.90;;;;;;5066500;28;20486;-68
2023/02/05 11:38:00;;;;;;;7.93;4.07;;;3.30;99.90;;;;;;5067682;28;20435;-68
2023/02/05 11:40:29;;;;;;;7.83;3.40;;;3.30;99.90;;;;;;5068358;28;20447;-69
2023/02/05 11:43:03;;;;;;;4.63;3.13;;;3.30;99.90;;;;;;5066961;28;20485;-67
2023/02/05 11:45:32;;;;;;;4.40;3.23;;;3.30;99.90;;;;;;5066269;28;20532;-69
2023/02/05 11:48:02;;;;;;;4.07;3.20;;;3.30;99.90;;;;;;5066740;28;20489;-69
2023/02/05 11:50:31;;;;;;;5.70;3.27;;;3.30;99.90;;;;;;5066717;28;20439;-68
2023/02/05 11:53:08;;;;;;;4.73;3.80;;;3.30;99.90;;;;;;5067126;28;20451;-69
2023/02/05 11:55:36;;;;;;;3.67;3.07;;;3.20;99.90;;;;;;5064950;28;20566;-68
2023/02/05 11:58:05;;;;;;;5.43;4.23;;;3.00;99.90;;;;;;5065367;28;20742;-68
2023/02/05 12:00:34;;;;;;;5.03;4.07;;;3.00;99.90;;;;;;5066320;28;20519;-68
2023/02/05 12:03:15;;;;;;;5.00;3.73;;;3.10;99.90;;;;;;5066581;28;20482;-67
2023/02/05 12:05:50;;;;;;;9.20;3.43;;;3.20;99.90;;;;;;5067024;28;20905;-68
2023/02/05 12:08:28;;;;;;;10.60;3.30;;;3.40;99.90;;;;;;5066237;28;20497;-68
2023/02/05 12:11:04;;;;;;;3.53;3.23;;;3.50;99.90;;;;;;5065704;28;20526;-68
2023/02/05 12:13:45;;;;;;;7.73;3.70;;;3.60;99.90;;;;;;5067278;28;20470;-68
2023/02/05 12:16:18;;;;;;;5.90;3.20;;;3.70;99.90;;;;;;5064208;28;20475;-68
2023/02/05 12:18:55;;;;;;;3.90;3.10;;;4.00;99.90;;;;;;5065741;28;20542;-69
2023/02/05 12:21:35;;;;;;;6.10;3.83;;;4.20;99.90;;;;;;5066677;28;20443;-69
2023/02/05 12:24:18;;;;;;;6.23;3.27;;;4.60;99.90;;;;;;5065718;28;20463;-67
2023/02/05 12:26:50;;;;;;;4.30;3.00;;;4.90;99.90;;;;;;5066730;28;20539;-68
2023/02/05 12:29:31;;;;;;;5.90;2.90;;;5.10;99.90;;;;;;5064604;28;20526;-69
2023/02/05 12:32:03;;;;;;;3.90;2.80;;;5.10;99.90;;;;;;5064195;28;20968;-72
2023/02/05 12:34:39;;;;;;;6.30;2.70;;;5.20;99.90;;;;;;5064537;28;20471;-69
2023/02/05 12:37:18;;;;;;;5.73;3.77;;;5.40;99.90;;;;;;5065642;28;20467;-68
2023/02/05 12:39:49;;;;;;;3.60;3.00;;;5.70;99.90;;;;;;5062890;28;20454;-69
2023/02/05 12:42:29;;;;;;;6.70;4.60;;;5.80;99.90;;;;;;5062433;28;20443;-69
2023/02/05 12:45:24;;;;;;;5.93;3.40;;;6.10;99.90;;;;;;5063668;28;20488;-68
2023/02/05 12:48:07;;;;;;;5.40;3.00;;;6.60;99.90;;;;;;5063077;28;20446;-68
2023/02/05 12:51:03;;;;;;;6.50;3.37;;;7.00;99.90;;;;;;5063140;28;20779;-69
2023/02/05 12:53:50;;;;;;;4.00;2.80;;;7.20;99.90;;;;;;5064264;28;20455;-68
2023/02/05 12:56:33;;;;;;;4.67;2.70;;;7.30;99.90;;;;;;5062000;28;20563;-68
2023/02/05 12:59:02;;;;;;;4.40;3.30;;;7.40;99.90;;;;;;5061407;28;20546;-67
2023/02/05 13:01:39;;;;;;;4.10;3.33;;;7.60;99.20;;;;;;5059919;28;20749;-68
2023/02/05 13:04:11;;;;;;;4.63;3.07;;;7.90;98.50;;;;;;5059525;28;20529;-69
2023/02/05 13:06:42;;;;;;;5.10;2.90;;;7.90;96.80;;;;;;5062179;28;20482;-67
2023/02/05 13:09:18;;;;;;;4.30;2.80;;;7.90;94.20;;;;;;5060020;28;20443;-68
2023/02/05 13:11:51;;;;;;;5.67;3.07;;;7.90;94.50;;;;;;5060757;28;20973;-69
2023/02/05 13:14:23;;;;;;;3.43;2.80;;;8.00;93.60;;;;;;5061311;28;20476;-69